createdAt,value
2022-10-06T00:00:36.981Z,29.08
2022-10-06T00:03:04.162Z,29.40
2022-10-06T00:05:31.124Z,28.90
2022-10-06T00:07:58.376Z,27.92
2022-10-06T00:10:25.054Z,28.50
2022-10-06T00:12:52.340Z,27.98
2022-10-06T00:15:22.220Z,29.77
2022-10-06T00:17:49.424Z,30.20
2022-10-06T00:20:16.370Z,28.92
2022-10-06T00:22:47.038Z,30.80
2022-10-06T00:25:17.844Z,31.25
2022-10-06T00:27:47.509Z,29.00
2022-10-06T00:30:20.233Z,29.48
2022-10-06T00:32:52.865Z,30.25
2022-10-06T00:35:20.714Z,31.00
2022-10-06T00:37:47.488Z,30.55
2022-10-06T00:40:14.476Z,29.70
2022-10-06T00:42:56.424Z,30.65
2022-10-06T00:45:29.001Z,32.00
2022-10-06T00:47:59.711Z,28.98
2022-10-06T00:50:26.961Z,29.63
2022-10-06T00:52:55.638Z,31.05
2022-10-06T00:55:22.792Z,31.58
2022-10-06T00:57:52.336Z,30.13
2022-10-06T01:00:19.274Z,30.63
2022-10-06T01:02:54.593Z,32.63
2022-10-06T01:05:28.393Z,29.90
2022-10-06T01:07:55.720Z,31.70
2022-10-06T01:10:22.535Z,31.45
2022-10-06T01:12:49.310Z,33.42
2022-10-06T01:15:16.737Z,32.00
2022-10-06T01:17:57.141Z,31.65
2022-10-06T01:20:24.228Z,32.65
2022-10-06T01:22:57.367Z,30.35
2022-10-06T01:25:24.184Z,31.67
2022-10-06T01:27:55.957Z,32.28
2022-10-06T01:30:46.095Z,32.40
2022-10-06T01:33:12.814Z,33.67
2022-10-06T01:35:39.510Z,34.65
2022-10-06T01:38:06.224Z,33.70
2022-10-06T01:40:32.954Z,34.40
2022-10-06T01:42:59.595Z,32.25
2022-10-06T01:45:26.398Z,31.88
2022-10-06T01:47:53.028Z,31.70
2022-10-06T01:50:19.806Z,33.72
2022-10-06T01:52:46.470Z,33.55
2022-10-06T01:55:14.566Z,35.05
2022-10-06T01:57:43.167Z,33.38
2022-10-06T02:00:12.010Z,31.63
2022-10-06T02:02:38.764Z,35.80
2022-10-06T02:05:06.110Z,34.65
2022-10-06T02:07:34.603Z,33.80
2022-10-06T02:10:01.453Z,32.97
2022-10-06T02:12:29.678Z,34.75
2022-10-06T02:14:56.588Z,32.83
2022-10-06T02:17:24.097Z,35.15
2022-10-06T02:19:50.959Z,33.40
2022-10-06T02:22:18.208Z,33.75
2022-10-06T02:24:44.991Z,34.50
2022-10-06T02:27:11.753Z,35.10
2022-10-06T02:29:38.511Z,33.22
2022-10-06T02:32:05.720Z,34.17
2022-10-06T02:34:33.034Z,32.75
2022-10-06T02:36:59.779Z,33.47
2022-10-06T02:39:26.524Z,33.13
2022-10-06T02:41:53.178Z,32.08
2022-10-06T02:44:19.905Z,32.53
2022-10-06T02:46:47.911Z,31.50
2022-10-06T02:49:14.615Z,34.15
2022-10-06T02:51:41.358Z,34.03
2022-10-06T02:54:08.216Z,32.70
2022-10-06T02:56:34.904Z,33.88
2022-10-06T02:59:01.665Z,34.22
2022-10-06T03:01:29.043Z,33.75
2022-10-06T03:03:55.865Z,34.60
2022-10-06T03:06:30.425Z,34.03
2022-10-06T03:09:07.311Z,33.80
2022-10-06T03:11:39.992Z,33.08
2022-10-06T03:14:07.401Z,34.58
2022-10-06T03:16:41.974Z,34.45
2022-10-06T03:19:09.791Z,34.08
2022-10-06T03:21:38.968Z,34.80
2022-10-06T03:24:05.891Z,34.53
2022-10-06T03:26:35.060Z,34.30
2022-10-06T03:29:02.137Z,33.35
2022-10-06T03:31:29.306Z,35.45
2022-10-06T03:33:56.713Z,35.25
2022-10-06T03:36:25.750Z,35.88
2022-10-06T03:38:52.769Z,36.40
2022-10-06T03:41:25.259Z,36.42
2022-10-06T03:43:53.533Z,36.03
2022-10-06T03:46:26.541Z,37.60
2022-10-06T03:48:54.327Z,37.42
2022-10-06T03:51:29.730Z,37.22
2022-10-06T03:53:57.483Z,36.97
2022-10-06T03:56:31.465Z,35.25
2022-10-06T03:59:04.759Z,35.42
2022-10-06T04:01:39.887Z,36.40
2022-10-06T04:04:07.094Z,36.30
2022-10-06T04:06:36.455Z,35.45
2022-10-06T04:09:05.228Z,34.72
2022-10-06T04:11:33.957Z,33.90
2022-10-06T04:14:03.332Z,32.85
2022-10-06T04:16:38.760Z,35.00
2022-10-06T04:19:09.897Z,35.83
2022-10-06T04:21:38.110Z,35.50
2022-10-06T04:24:06.535Z,34.63
2022-10-06T04:26:38.092Z,36.45
2022-10-06T04:29:05.184Z,34.05
2022-10-06T04:31:36.090Z,34.17
2022-10-06T04:34:03.832Z,35.08
2022-10-06T04:36:36.453Z,34.95
2022-10-06T04:39:04.657Z,34.67
2022-10-06T04:41:36.556Z,35.78
2022-10-06T04:44:04.562Z,37.28
2022-10-06T04:46:47.880Z,37.42
2022-10-06T04:49:19.865Z,37.00
2022-10-06T04:51:49.362Z,36.22
2022-10-06T04:54:16.349Z,35.88
2022-10-06T04:56:43.047Z,36.22
2022-10-06T04:59:09.933Z,36.28
2022-10-06T05:01:37.715Z,36.88
2022-10-06T05:04:06.134Z,36.22
2022-10-06T05:06:41.662Z,37.03
2022-10-06T05:11:36.245Z,36.08
2022-10-06T05:14:03.261Z,36.17
2022-10-06T05:16:31.548Z,36.00
2022-10-06T05:18:58.779Z,36.33
2022-10-06T05:21:30.667Z,35.45
2022-10-06T05:23:57.465Z,36.30
2022-10-06T05:26:26.896Z,37.05
2022-10-06T05:28:53.848Z,36.60
2022-10-06T05:31:27.126Z,35.53
2022-10-06T05:33:55.231Z,33.40
2022-10-06T05:36:33.934Z,35.08
2022-10-06T05:39:01.473Z,34.80
2022-10-06T05:41:30.499Z,35.88
2022-10-06T05:43:58.300Z,33.17
2022-10-06T05:46:32.633Z,35.85
2022-10-06T05:49:01.632Z,35.75
2022-10-06T05:51:31.445Z,35.10
2022-10-06T05:54:01.644Z,36.53
2022-10-06T05:56:34.048Z,35.72
2022-10-06T05:59:01.135Z,35.25
2022-10-06T06:01:40.132Z,33.95
2022-10-06T06:04:09.403Z,34.13
2022-10-06T06:06:38.730Z,33.40
2022-10-06T06:09:12.072Z,34.17
2022-10-06T06:11:45.068Z,33.72
2022-10-06T06:14:17.174Z,34.28
2022-10-06T06:16:45.069Z,31.83
2022-10-06T06:19:13.353Z,32.15
2022-10-06T06:21:40.651Z,32.92
2022-10-06T06:24:07.406Z,32.55
2022-10-06T06:26:36.817Z,33.45
2022-10-06T06:29:04.450Z,33.63
2022-10-06T06:31:34.468Z,31.67
2022-10-06T06:34:06.510Z,32.90
2022-10-06T06:36:36.853Z,31.85
2022-10-06T06:39:06.182Z,33.53
2022-10-06T06:41:37.831Z,33.20
2022-10-06T06:44:07.279Z,32.92
2022-10-06T06:49:07.131Z,33.17
2022-10-06T06:51:36.826Z,32.47
2022-10-06T06:54:04.577Z,31.50
2022-10-06T06:56:34.816Z,31.02
2022-10-06T06:59:03.401Z,32.72
2022-10-06T07:01:30.727Z,33.45
2022-10-06T07:04:01.201Z,32.47
2022-10-06T07:06:29.675Z,33.75
2022-10-06T07:08:58.213Z,33.63
2022-10-06T07:11:32.261Z,34.30
2022-10-06T07:14:03.081Z,33.72
2022-10-06T07:16:49.990Z,32.92
2022-10-06T07:19:37.079Z,33.00
2022-10-06T07:22:28.455Z,34.03
2022-10-06T07:25:12.867Z,35.95
2022-10-06T07:27:42.294Z,37.40
2022-10-06T07:30:24.115Z,37.85
2022-10-06T07:32:52.038Z,38.17
2022-10-06T07:35:21.196Z,37.97
2022-10-06T07:37:49.472Z,36.42
2022-10-06T07:40:17.346Z,39.08
2022-10-06T07:42:53.500Z,38.53
2022-10-06T07:45:46.376Z,37.63
2022-10-06T07:48:18.754Z,37.10
2022-10-06T07:50:48.139Z,37.85
2022-10-06T07:53:17.165Z,39.53
2022-10-06T07:55:46.389Z,40.45
2022-10-06T07:58:18.610Z,37.85
2022-10-06T08:00:46.876Z,40.47
2022-10-06T08:03:18.060Z,37.53
2022-10-06T08:05:56.794Z,44.65
2022-10-06T08:08:24.126Z,45.10
2022-10-06T08:10:55.670Z,44.10
2022-10-06T08:13:23.129Z,44.92
2022-10-06T08:15:51.305Z,42.25
2022-10-06T08:18:34.121Z,45.78
2022-10-06T08:24:33.830Z,43.65
2022-10-06T08:27:09.762Z,45.70
2022-10-06T08:29:36.513Z,46.70
2022-10-06T08:32:03.181Z,48.70
2022-10-06T08:34:30.175Z,44.15
2022-10-06T08:37:19.808Z,46.22
2022-10-06T08:39:45.612Z,45.20
2022-10-06T08:42:35.951Z,46.80
2022-10-06T08:45:24.918Z,44.20
2022-10-06T08:48:14.017Z,47.75
2022-10-06T08:51:08.223Z,47.38
2022-10-06T08:53:49.639Z,49.22
2022-10-06T08:56:29.049Z,45.50
2022-10-06T08:58:58.522Z,48.47
2022-10-06T09:01:28.295Z,47.55
2022-10-06T09:04:01.809Z,45.00
2022-10-06T09:06:40.293Z,47.30
2022-10-06T09:09:26.579Z,50.90
2022-10-06T09:12:13.492Z,48.10
2022-10-06T09:14:49.625Z,49.35
2022-10-06T09:17:26.403Z,51.22
2022-10-06T09:20:20.912Z,50.72
2022-10-06T09:22:50.467Z,51.47
2022-10-06T09:25:20.731Z,50.35
2022-10-06T09:27:53.147Z,51.10
2022-10-06T09:30:19.912Z,51.40
2022-10-06T09:33:00.373Z,51.03
2022-10-06T09:35:30.763Z,50.63
2022-10-06T09:38:08.688Z,50.75
2022-10-06T09:40:49.193Z,53.58
2022-10-06T09:43:26.902Z,48.83
2022-10-06T09:45:55.369Z,48.72
2022-10-06T09:48:25.412Z,49.70
2022-10-06T09:51:17.901Z,51.08
2022-10-06T09:54:03.636Z,49.97
2022-10-06T09:56:33.079Z,47.70
2022-10-06T09:59:01.723Z,51.42
2022-10-06T10:01:30.746Z,50.25
2022-10-06T10:04:20.535Z,49.92
2022-10-06T10:06:48.253Z,46.92
2022-10-06T10:09:22.626Z,53.60
2022-10-06T10:12:34.135Z,49.38
2022-10-06T10:15:10.180Z,47.67
2022-10-06T10:17:49.682Z,51.35
2022-10-06T10:20:36.533Z,49.53
2022-10-06T10:23:28.569Z,53.53
2022-10-06T10:26:29.005Z,54.13
2022-10-06T10:29:33.108Z,49.58
2022-10-06T10:32:13.455Z,48.78
2022-10-06T10:34:49.212Z,47.47
2022-10-06T10:37:43.279Z,46.90
2022-10-06T10:40:28.469Z,46.05
2022-10-06T10:43:32.932Z,51.28
2022-10-06T10:46:10.322Z,47.20
2022-10-06T10:49:01.388Z,49.45
2022-10-06T10:51:36.968Z,54.10
2022-10-06T10:54:08.727Z,54.33
2022-10-06T10:56:35.863Z,55.25
2022-10-06T10:59:42.471Z,51.58
2022-10-06T11:02:16.788Z,49.15
2022-10-06T11:04:49.652Z,50.57
2022-10-06T11:07:38.961Z,51.92
2022-10-06T11:10:22.063Z,54.10
2022-10-06T11:13:09.226Z,50.40
2022-10-06T11:15:48.003Z,52.00
2022-10-06T11:18:30.694Z,46.58
2022-10-06T11:21:15.790Z,48.53
2022-10-06T11:24:20.992Z,50.10
2022-10-06T11:27:20.230Z,51.53
2022-10-06T11:29:52.843Z,51.08
2022-10-06T11:32:25.365Z,47.42
2022-10-06T11:34:52.777Z,49.10
2022-10-06T11:37:47.732Z,47.50
2022-10-06T11:40:51.704Z,47.67
2022-10-06T11:43:29.218Z,46.83
2022-10-06T11:46:04.973Z,47.95
2022-10-06T11:48:32.911Z,46.60
2022-10-06T11:51:26.097Z,44.50
2022-10-06T11:53:53.122Z,43.40
2022-10-06T11:56:19.759Z,43.28
2022-10-06T11:58:52.334Z,38.95
2022-10-06T12:01:31.194Z,38.92
2022-10-06T12:04:05.588Z,41.88
2022-10-06T12:06:47.504Z,43.92
2022-10-06T12:09:30.844Z,39.95
2022-10-06T12:12:20.305Z,41.63
2022-10-06T12:18:03.604Z,40.67
2022-10-06T12:20:39.531Z,38.22
2022-10-06T12:23:09.189Z,40.70
2022-10-06T12:26:04.318Z,39.65
2022-10-06T12:28:44.958Z,29.38
2022-10-06T12:31:37.411Z,30.38
2022-10-06T12:34:24.229Z,35.75
2022-10-06T12:37:10.930Z,34.85
2022-10-06T12:39:37.697Z,26.92
2022-10-06T12:42:18.304Z,32.83
2022-10-06T12:44:51.822Z,35.00
2022-10-06T12:47:37.756Z,34.72
2022-10-06T12:50:12.475Z,27.10
2022-10-06T12:55:32.147Z,30.60
2022-10-06T12:57:59.189Z,29.35
2022-10-06T13:00:42.322Z,33.20
2022-10-06T13:03:18.189Z,20.85
2022-10-06T13:06:03.571Z,30.25
2022-10-06T13:08:32.304Z,30.30
2022-10-06T13:11:19.922Z,26.42
2022-10-06T13:13:52.499Z,32.08
2022-10-06T13:16:26.003Z,26.67
2022-10-06T13:18:58.426Z,34.15
2022-10-06T13:21:29.309Z,28.42
2022-10-06T13:23:56.420Z,33.20
2022-10-06T13:26:34.685Z,32.22
2022-10-06T13:29:01.526Z,34.55
2022-10-06T13:31:33.505Z,31.85
2022-10-06T13:34:01.616Z,33.72
2022-10-06T13:36:30.112Z,32.95
2022-10-06T13:38:57.183Z,32.00
2022-10-06T13:41:38.016Z,33.47
2022-10-06T13:44:18.695Z,33.65
2022-10-06T13:47:01.775Z,32.58
2022-10-06T13:49:36.892Z,33.38
2022-10-06T13:52:15.036Z,30.65
2022-10-06T13:54:50.151Z,29.52
2022-10-06T13:57:35.746Z,30.35
2022-10-06T14:00:08.040Z,27.58
2022-10-06T14:02:36.421Z,33.13
2022-10-06T14:05:41.753Z,31.17
2022-10-06T14:08:11.579Z,34.78
2022-10-06T14:10:48.425Z,24.77
2022-10-06T14:13:21.161Z,32.20
2022-10-06T14:15:54.850Z,27.10
2022-10-06T14:18:28.915Z,31.85
2022-10-06T14:20:57.209Z,28.00
2022-10-06T14:23:40.938Z,27.25
2022-10-06T14:26:08.946Z,27.92
2022-10-06T14:28:35.941Z,27.90
2022-10-06T14:31:03.865Z,27.27
2022-10-06T14:33:30.650Z,29.33
2022-10-06T14:35:57.327Z,30.95
2022-10-06T14:38:24.671Z,30.63
2022-10-06T14:40:51.526Z,33.50
2022-10-06T14:43:18.712Z,33.42
2022-10-06T14:45:45.646Z,32.60
2022-10-06T14:48:15.231Z,31.15
2022-10-06T14:50:46.838Z,29.90
2022-10-06T14:53:16.857Z,28.42
2022-10-06T14:55:43.985Z,25.25
2022-10-06T14:58:10.789Z,30.88
2022-10-06T15:00:39.344Z,30.63
2022-10-06T15:03:06.200Z,36.25
2022-10-06T15:05:33.035Z,29.90
2022-10-06T15:08:11.778Z,25.98
2022-10-06T15:10:39.260Z,26.25
2022-10-06T15:13:08.396Z,18.98
2022-10-06T15:15:35.957Z,14.20
2022-10-06T15:18:03.709Z,29.05
2022-10-06T15:20:30.375Z,31.50
2022-10-06T15:22:57.281Z,28.98
2022-10-06T15:25:43.002Z,27.80
2022-10-06T15:30:57.513Z,25.90
2022-10-06T15:33:24.599Z,28.15
2022-10-06T15:36:16.163Z,26.67
2022-10-06T15:38:43.597Z,26.02
2022-10-06T15:41:10.775Z,25.45
2022-10-06T15:43:57.374Z,26.48
2022-10-06T15:46:36.088Z,26.55
2022-10-06T15:49:32.842Z,28.25
2022-10-06T15:52:02.925Z,25.83
2022-10-06T15:54:37.318Z,26.10
2022-10-06T15:57:06.299Z,24.85
2022-10-06T15:59:33.722Z,26.63
2022-10-06T16:02:21.052Z,25.55
2022-10-06T16:05:14.933Z,25.50
2022-10-06T16:07:41.566Z,23.17
2022-10-06T16:10:08.727Z,25.95
2022-10-06T16:12:35.375Z,24.70
2022-10-06T16:15:02.116Z,27.58
2022-10-06T16:17:28.824Z,25.00
2022-10-06T16:19:55.481Z,24.45
2022-10-06T16:22:22.372Z,25.90
2022-10-06T16:24:49.841Z,26.80
2022-10-06T16:27:16.737Z,25.52
2022-10-06T16:29:43.635Z,26.92
2022-10-06T16:32:10.795Z,26.83
2022-10-06T16:34:37.606Z,27.13
2022-10-06T16:37:04.371Z,27.15
2022-10-06T16:39:31.156Z,28.95
2022-10-06T16:41:57.788Z,27.63
2022-10-06T16:44:24.611Z,27.30
2022-10-06T16:46:51.355Z,26.88
2022-10-06T16:49:18.095Z,25.58
2022-10-06T16:51:46.073Z,26.70
2022-10-06T16:54:14.633Z,28.42
2022-10-06T16:56:53.943Z,26.98
2022-10-06T16:59:22.588Z,28.60
2022-10-06T17:01:50.222Z,26.33
2022-10-06T17:04:19.666Z,28.65
2022-10-06T17:06:55.094Z,28.27
2022-10-06T17:11:52.330Z,28.00
2022-10-06T17:14:21.358Z,31.48
2022-10-06T17:16:49.589Z,29.08
2022-10-06T17:19:17.478Z,29.50
2022-10-06T17:21:46.752Z,29.10
2022-10-06T17:24:15.480Z,29.50
2022-10-06T17:26:43.668Z,29.67
2022-10-06T17:29:18.722Z,28.42
2022-10-06T17:31:46.438Z,29.00
2022-10-06T17:34:19.781Z,29.92
2022-10-06T17:36:49.847Z,30.30
2022-10-06T17:39:18.675Z,30.65
2022-10-06T17:41:48.062Z,30.58
2022-10-06T17:44:20.788Z,28.35
2022-10-06T17:46:48.692Z,32.67
2022-10-06T17:49:17.751Z,29.45
2022-10-06T17:51:50.820Z,31.40
2022-10-06T17:54:20.634Z,31.40
2022-10-06T17:56:49.511Z,29.63
2022-10-06T17:59:18.769Z,29.10
2022-10-06T18:01:45.557Z,32.65
2022-10-06T18:04:16.695Z,30.80
2022-10-06T18:06:45.317Z,30.10
2022-10-06T18:09:12.501Z,32.40
2022-10-06T18:11:41.698Z,31.33
2022-10-06T18:14:19.426Z,30.52
2022-10-06T18:17:00.761Z,31.27
2022-10-06T18:19:30.005Z,30.83
2022-10-06T18:22:09.749Z,31.50
2022-10-06T18:24:36.795Z,31.75
2022-10-06T18:27:05.580Z,30.05
2022-10-06T18:29:34.577Z,32.13
2022-10-06T18:32:27.262Z,32.80
2022-10-06T18:37:35.284Z,31.60
2022-10-06T18:40:05.827Z,33.25
2022-10-06T18:42:32.558Z,32.35
2022-10-06T18:45:18.230Z,31.30
2022-10-06T18:48:03.628Z,33.40
2022-10-06T18:50:31.017Z,34.33
2022-10-06T18:52:57.777Z,34.08
2022-10-06T18:55:26.264Z,33.25
2022-10-06T18:57:53.019Z,34.20
2022-10-06T19:00:19.732Z,34.85
2022-10-06T19:02:48.947Z,35.17
2022-10-06T19:05:17.455Z,33.85
2022-10-06T19:07:44.944Z,35.40
2022-10-06T19:10:12.041Z,35.75
2022-10-06T19:12:38.947Z,36.92
2022-10-06T19:15:05.972Z,36.30
2022-10-06T19:17:32.715Z,37.75
2022-10-06T19:19:59.586Z,36.28
2022-10-06T19:22:26.267Z,36.97
2022-10-06T19:24:53.039Z,36.83
2022-10-06T19:27:28.890Z,36.33
2022-10-06T19:29:56.895Z,34.30
2022-10-06T19:32:27.072Z,36.22
2022-10-06T19:34:58.844Z,37.30
2022-10-06T19:37:27.777Z,36.92
2022-10-06T19:39:54.476Z,36.90
2022-10-06T19:42:39.495Z,38.42
2022-10-06T19:45:08.230Z,36.67
2022-10-06T19:47:35.037Z,35.90
2022-10-06T19:50:08.803Z,36.50
2022-10-06T19:52:38.233Z,37.45
2022-10-06T19:55:05.362Z,37.17
2022-10-06T19:57:33.492Z,39.65
2022-10-06T20:00:00.434Z,36.60
2022-10-06T20:02:28.664Z,35.38
2022-10-06T20:04:55.665Z,37.40
2022-10-06T20:07:25.407Z,37.95
2022-10-06T20:09:52.116Z,37.35
2022-10-06T20:12:23.793Z,38.72
2022-10-06T20:14:53.377Z,38.88
2022-10-06T20:17:20.779Z,36.65
2022-10-06T20:19:47.648Z,38.70
2022-10-06T20:22:14.382Z,37.78
2022-10-06T20:24:41.263Z,38.20
2022-10-06T20:27:08.781Z,36.92
2022-10-06T20:29:35.513Z,38.75
2022-10-06T20:32:02.281Z,40.85
2022-10-06T20:34:31.820Z,39.55
2022-10-06T20:37:02.033Z,39.63
2022-10-06T20:39:49.199Z,39.30
2022-10-06T20:42:16.748Z,40.53
2022-10-06T20:44:44.248Z,40.40
2022-10-06T20:47:12.377Z,39.90
2022-10-06T20:49:39.604Z,42.15
2022-10-06T20:52:07.190Z,42.33
2022-10-06T20:54:37.286Z,41.08
2022-10-06T20:57:05.903Z,41.88
2022-10-06T20:59:35.400Z,41.22
2022-10-06T21:02:03.102Z,43.88
2022-10-06T21:04:30.584Z,44.42
2022-10-06T21:06:57.656Z,43.17
2022-10-06T21:09:24.949Z,42.38
2022-10-06T21:11:52.345Z,44.65
2022-10-06T21:14:19.833Z,44.53
2022-10-06T21:16:48.180Z,44.03
2022-10-06T21:19:19.460Z,42.33
2022-10-06T21:21:53.051Z,44.25
2022-10-06T21:24:20.747Z,42.55
2022-10-06T21:26:48.090Z,44.38
2022-10-06T21:29:15.652Z,43.88
2022-10-06T21:31:43.545Z,43.00
2022-10-06T21:34:10.642Z,43.80
2022-10-06T21:36:37.897Z,43.05
2022-10-06T21:39:05.861Z,43.85
2022-10-06T21:41:38.874Z,44.15
2022-10-06T21:44:10.393Z,43.83
2022-10-06T21:46:42.829Z,43.60
2022-10-06T21:49:12.132Z,43.97
2022-10-06T21:51:40.598Z,42.05
2022-10-06T21:54:07.628Z,43.83
2022-10-06T21:56:34.407Z,42.92
2022-10-06T21:59:01.577Z,42.35
2022-10-06T22:01:34.499Z,44.22
2022-10-06T22:04:02.104Z,42.00
2022-10-06T22:06:29.901Z,41.55
2022-10-06T22:08:58.532Z,43.95
2022-10-06T22:11:27.374Z,43.35
2022-10-06T22:13:56.458Z,41.50
2022-10-06T22:16:26.563Z,41.80
2022-10-06T22:18:54.265Z,39.45
2022-10-06T22:21:23.717Z,41.00
2022-10-06T22:23:56.050Z,41.63
2022-10-06T22:26:23.970Z,40.58
2022-10-06T22:28:52.609Z,41.78
2022-10-06T22:31:25.486Z,43.28
2022-10-06T22:33:57.947Z,41.22
2022-10-06T22:36:26.138Z,41.63
2022-10-06T22:38:53.644Z,41.25
2022-10-06T22:41:20.696Z,41.42
2022-10-06T22:43:47.796Z,42.03
2022-10-06T22:46:15.002Z,41.83
2022-10-06T22:48:41.902Z,42.00
2022-10-06T22:51:09.606Z,41.15
2022-10-06T22:53:36.342Z,42.70
2022-10-06T22:56:03.760Z,41.97
2022-10-06T22:58:30.742Z,42.85
2022-10-06T23:00:57.575Z,43.85
2022-10-06T23:03:24.702Z,44.15
2022-10-06T23:06:00.463Z,43.33
2022-10-06T23:08:34.030Z,45.03
2022-10-06T23:11:21.824Z,42.58
2022-10-06T23:13:50.292Z,42.83
2022-10-06T23:16:18.182Z,44.60
2022-10-06T23:18:45.497Z,45.33
2022-10-06T23:21:21.231Z,43.15
2022-10-06T23:23:54.251Z,42.85
2022-10-06T23:26:23.322Z,44.88
2022-10-06T23:28:58.768Z,45.03
2022-10-06T23:31:26.610Z,42.70
2022-10-06T23:33:54.490Z,44.13
2022-10-06T23:36:21.450Z,45.40
2022-10-06T23:38:48.229Z,44.75
2022-10-06T23:41:15.689Z,44.72
2022-10-06T23:43:42.775Z,45.05
2022-10-06T23:46:09.483Z,45.60
2022-10-06T23:48:36.281Z,46.40
2022-10-06T23:51:15.575Z,45.88
2022-10-06T23:53:42.998Z,45.50
2022-10-06T23:56:10.470Z,45.55
2022-10-06T23:58:37.611Z,44.80
